sensor_id;sensor_type;location;lat;lon;timestamp;P1;durP1;ratioP1;P2;durP2;ratioP2
20842;SDS011;26719;51.440;-2.574;2022-12-08T00:01:33;0.30;;;0.30;;
20842;SDS011;26719;51.440;-2.574;2022-12-08T00:04:00;0.40;;;0.40;;
20842;SDS011;26719;51.440;-2.574;2022-12-08T00:11:46;0.30;;;0.30;;
20842;SDS011;26719;51.440;-2.574;2022-12-08T00:14:12;0.50;;;0.50;;
20842;SDS011;26719;51.440;-2.574;2022-12-08T00:16:38;0.47;;;0.47;;
20842;SDS011;26719;51.440;-2.574;2022-12-08T00:19:04;0.43;;;0.43;;
20842;SDS011;26719;51.440;-2.574;2022-12-08T00:21:30;0.30;;;0.30;;
20842;SDS011;26719;51.440;-2.574;2022-12-08T00:23:56;0.30;;;0.30;;
20842;SDS011;26719;51.440;-2.574;2022-12-08T00:26:22;0.50;;;0.50;;
20842;SDS011;26719;51.440;-2.574;2022-12-08T00:28:48;0.50;;;0.50;;
20842;SDS011;26719;51.440;-2.574;2022-12-08T00:31:14;0.40;;;0.40;;
20842;SDS011;26719;51.440;-2.574;2022-12-08T00:33:40;0.33;;;0.33;;
20842;SDS011;26719;51.440;-2.574;2022-12-08T00:36:11;0.30;;;0.30;;
20842;SDS011;26719;51.440;-2.574;2022-12-08T00:38:38;0.30;;;0.30;;
20842;SDS011;26719;51.440;-2.574;2022-12-08T00:41:14;0.40;;;0.40;;
20842;SDS011;26719;51.440;-2.574;2022-12-08T00:43:40;0.50;;;0.50;;
20842;SDS011;26719;51.440;-2.574;2022-12-08T00:46:07;0.47;;;0.47;;
20842;SDS011;26719;51.440;-2.574;2022-12-08T00:48:33;0.40;;;0.40;;
20842;SDS011;26719;51.440;-2.574;2022-12-08T00:50:59;0.30;;;0.30;;
20842;SDS011;26719;51.440;-2.574;2022-12-08T00:53:25;0.40;;;0.40;;
20842;SDS011;26719;51.440;-2.574;2022-12-08T00:55:51;0.23;;;0.23;;
20842;SDS011;26719;51.440;-2.574;2022-12-08T00:58:17;0.40;;;0.40;;
20842;SDS011;26719;51.440;-2.574;2022-12-08T01:00:43;0.37;;;0.37;;
20842;SDS011;26719;51.440;-2.574;2022-12-08T01:03:10;0.40;;;0.40;;
20842;SDS011;26719;51.440;-2.574;2022-12-08T01:05:36;0.50;;;0.50;;
20842;SDS011;26719;51.440;-2.574;2022-12-08T01:08:05;0.40;;;0.40;;
20842;SDS011;26719;51.440;-2.574;2022-12-08T01:10:34;0.60;;;0.60;;
20842;SDS011;26719;51.440;-2.574;2022-12-08T01:13:01;0.43;;;0.43;;
20842;SDS011;26719;51.440;-2.574;2022-12-08T01:15:27;0.40;;;0.40;;
20842;SDS011;26719;51.440;-2.574;2022-12-08T01:17:53;0.40;;;0.40;;
20842;SDS011;26719;51.440;-2.574;2022-12-08T01:20:19;0.30;;;0.30;;
20842;SDS011;26719;51.440;-2.574;2022-12-08T01:22:45;0.40;;;0.40;;
20842;SDS011;26719;51.440;-2.574;2022-12-08T01:25:11;0.40;;;0.40;;
20842;SDS011;26719;51.440;-2.574;2022-12-08T01:27:37;0.30;;;0.30;;
20842;SDS011;26719;51.440;-2.574;2022-12-08T01:30:03;0.50;;;0.50;;
20842;SDS011;26719;51.440;-2.574;2022-12-08T01:32:29;0.40;;;0.40;;
20842;SDS011;26719;51.440;-2.574;2022-12-08T01:34:55;0.50;;;0.50;;
20842;SDS011;26719;51.440;-2.574;2022-12-08T01:37:21;0.43;;;0.43;;
20842;SDS011;26719;51.440;-2.574;2022-12-08T01:39:47;0.50;;;0.50;;
20842;SDS011;26719;51.440;-2.574;2022-12-08T01:42:19;0.30;;;0.30;;
20842;SDS011;26719;51.440;-2.574;2022-12-08T01:44:53;0.50;;;0.50;;
20842;SDS011;26719;51.440;-2.574;2022-12-08T01:47:20;0.40;;;0.40;;
20842;SDS011;26719;51.440;-2.574;2022-12-08T01:49:47;0.33;;;0.33;;
20842;SDS011;26719;51.440;-2.574;2022-12-08T01:52:15;0.33;;;0.33;;
20842;SDS011;26719;51.440;-2.574;2022-12-08T01:54:43;0.30;;;0.30;;
20842;SDS011;26719;51.440;-2.574;2022-12-08T01:57:33;0.50;;;0.50;;
20842;SDS011;26719;51.440;-2.574;2022-12-08T01:59:59;0.30;;;0.30;;
20842;SDS011;26719;51.440;-2.574;2022-12-08T02:02:28;0.33;;;0.33;;
20842;SDS011;26719;51.440;-2.574;2022-12-08T02:04:56;0.40;;;0.40;;
20842;SDS011;26719;51.440;-2.574;2022-12-08T02:07:22;0.33;;;0.33;;
20842;SDS011;26719;51.440;-2.574;2022-12-08T02:09:49;0.57;;;0.57;;
20842;SDS011;26719;51.440;-2.574;2022-12-08T02:12:15;0.50;;;0.50;;
20842;SDS011;26719;51.440;-2.574;2022-12-08T02:14:41;0.30;;;0.30;;
20842;SDS011;26719;51.440;-2.574;2022-12-08T02:17:13;0.50;;;0.50;;
20842;SDS011;26719;51.440;-2.574;2022-12-08T02:35:33;0.50;;;0.50;;
20842;SDS011;26719;51.440;-2.574;2022-12-08T02:40:32;0.30;;;0.30;;
20842;SDS011;26719;51.440;-2.574;2022-12-08T02:43:06;0.50;;;0.50;;
20842;SDS011;26719;51.440;-2.574;2022-12-08T02:45:38;0.57;;;0.57;;
20842;SDS011;26719;51.440;-2.574;2022-12-08T02:48:07;0.50;;;0.50;;
20842;SDS011;26719;51.440;-2.574;2022-12-08T02:50:33;0.40;;;0.40;;
20842;SDS011;26719;51.440;-2.574;2022-12-08T02:52:59;0.30;;;0.30;;
20842;SDS011;26719;51.440;-2.574;2022-12-08T02:55:27;0.50;;;0.50;;
20842;SDS011;26719;51.440;-2.574;2022-12-08T02:58:07;0.40;;;0.40;;
20842;SDS011;26719;51.440;-2.574;2022-12-08T03:00:42;0.50;;;0.50;;
20842;SDS011;26719;51.440;-2.574;2022-12-08T03:11:09;0.40;;;0.40;;
20842;SDS011;26719;51.440;-2.574;2022-12-08T03:13:40;0.40;;;0.40;;
20842;SDS011;26719;51.440;-2.574;2022-12-08T03:16:07;0.50;;;0.50;;
20842;SDS011;26719;51.440;-2.574;2022-12-08T03:18:35;0.40;;;0.40;;
20842;SDS011;26719;51.440;-2.574;2022-12-08T03:21:03;0.43;;;0.43;;
20842;SDS011;26719;51.440;-2.574;2022-12-08T03:23:30;0.50;;;0.50;;
20842;SDS011;26719;51.440;-2.574;2022-12-08T03:26:03;0.40;;;0.40;;
20842;SDS011;26719;51.440;-2.574;2022-12-08T03:28:30;0.43;;;0.43;;
20842;SDS011;26719;51.440;-2.574;2022-12-08T03:30:56;0.40;;;0.40;;
20842;SDS011;26719;51.440;-2.574;2022-12-08T03:33:25;0.40;;;0.40;;
20842;SDS011;26719;51.440;-2.574;2022-12-08T03:35:53;0.40;;;0.40;;
20842;SDS011;26719;51.440;-2.574;2022-12-08T03:38:19;0.40;;;0.40;;
20842;SDS011;26719;51.440;-2.574;2022-12-08T03:40:46;0.33;;;0.33;;
20842;SDS011;26719;51.440;-2.574;2022-12-08T03:43:32;0.43;;;0.43;;
20842;SDS011;26719;51.440;-2.574;2022-12-08T03:45:58;0.50;;;0.50;;
20842;SDS011;26719;51.440;-2.574;2022-12-08T03:48:24;0.40;;;0.40;;
20842;SDS011;26719;51.440;-2.574;2022-12-08T03:50:50;0.50;;;0.50;;
20842;SDS011;26719;51.440;-2.574;2022-12-08T03:53:16;0.40;;;0.40;;
20842;SDS011;26719;51.440;-2.574;2022-12-08T03:55:42;0.30;;;0.30;;
20842;SDS011;26719;51.440;-2.574;2022-12-08T03:58:08;0.30;;;0.30;;
20842;SDS011;26719;51.440;-2.574;2022-12-08T04:00:34;0.40;;;0.40;;
20842;SDS011;26719;51.440;-2.574;2022-12-08T04:03:00;0.40;;;0.40;;
20842;SDS011;26719;51.440;-2.574;2022-12-08T04:05:28;0.50;;;0.50;;
20842;SDS011;26719;51.440;-2.574;2022-12-08T04:07:57;0.43;;;0.43;;
20842;SDS011;26719;51.440;-2.574;2022-12-08T04:10:23;0.40;;;0.40;;
20842;SDS011;26719;51.440;-2.574;2022-12-08T04:12:49;0.37;;;0.37;;
20842;SDS011;26719;51.440;-2.574;2022-12-08T04:15:15;0.40;;;0.40;;
20842;SDS011;26719;51.440;-2.574;2022-12-08T04:17:41;0.40;;;0.40;;
20842;SDS011;26719;51.440;-2.574;2022-12-08T04:20:07;0.40;;;0.40;;
20842;SDS011;26719;51.440;-2.574;2022-12-08T04:22:33;0.50;;;0.50;;
20842;SDS011;26719;51.440;-2.574;2022-12-08T04:24:59;0.50;;;0.50;;
20842;SDS011;26719;51.440;-2.574;2022-12-08T04:27:25;0.43;;;0.43;;
20842;SDS011;26719;51.440;-2.574;2022-12-08T04:29:51;0.40;;;0.40;;
20842;SDS011;26719;51.440;-2.574;2022-12-08T04:32:17;0.40;;;0.40;;
20842;SDS011;26719;51.440;-2.574;2022-12-08T04:34:43;0.30;;;0.30;;
20842;SDS011;26719;51.440;-2.574;2022-12-08T04:37:09;0.47;;;0.47;;
20842;SDS011;26719;51.440;-2.574;2022-12-08T04:39:35;0.60;;;0.60;;
20842;SDS011;26719;51.440;-2.574;2022-12-08T04:42:01;0.40;;;0.40;;
20842;SDS011;26719;51.440;-2.574;2022-12-08T04:44:27;0.50;;;0.50;;
20842;SDS011;26719;51.440;-2.574;2022-12-08T04:46:53;0.40;;;0.40;;
20842;SDS011;26719;51.440;-2.574;2022-12-08T04:49:19;0.40;;;0.40;;
20842;SDS011;26719;51.440;-2.574;2022-12-08T04:51:46;0.60;;;0.60;;
20842;SDS011;26719;51.440;-2.574;2022-12-08T04:54:12;0.40;;;0.40;;
20842;SDS011;26719;51.440;-2.574;2022-12-08T04:56:38;0.47;;;0.47;;
20842;SDS011;26719;51.440;-2.574;2022-12-08T04:59:04;0.57;;;0.57;;
20842;SDS011;26719;51.440;-2.574;2022-12-08T05:01:30;0.40;;;0.40;;
20842;SDS011;26719;51.440;-2.574;2022-12-08T05:03:56;0.30;;;0.30;;
20842;SDS011;26719;51.440;-2.574;2022-12-08T05:06:22;0.50;;;0.50;;
20842;SDS011;26719;51.440;-2.574;2022-12-08T05:08:48;0.40;;;0.40;;
20842;SDS011;26719;51.440;-2.574;2022-12-08T05:11:14;0.50;;;0.50;;
20842;SDS011;26719;51.440;-2.574;2022-12-08T05:13:40;0.40;;;0.40;;
20842;SDS011;26719;51.440;-2.574;2022-12-08T05:16:08;0.30;;;0.30;;
20842;SDS011;26719;51.440;-2.574;2022-12-08T05:18:34;0.60;;;0.60;;
20842;SDS011;26719;51.440;-2.574;2022-12-08T05:21:00;0.27;;;0.27;;
20842;SDS011;26719;51.440;-2.574;2022-12-08T05:23:26;0.37;;;0.37;;
20842;SDS011;26719;51.440;-2.574;2022-12-08T05:25:52;0.50;;;0.50;;
20842;SDS011;26719;51.440;-2.574;2022-12-08T05:28:18;0.40;;;0.40;;
20842;SDS011;26719;51.440;-2.574;2022-12-08T05:30:44;0.30;;;0.30;;
20842;SDS011;26719;51.440;-2.574;2022-12-08T05:33:10;0.40;;;0.40;;
20842;SDS011;26719;51.440;-2.574;2022-12-08T05:35:37;0.40;;;0.40;;
20842;SDS011;26719;51.440;-2.574;2022-12-08T05:38:03;0.30;;;0.30;;
20842;SDS011;26719;51.440;-2.574;2022-12-08T05:40:29;0.60;;;0.60;;
20842;SDS011;26719;51.440;-2.574;2022-12-08T05:42:55;0.40;;;0.40;;
20842;SDS011;26719;51.440;-2.574;2022-12-08T05:45:21;0.40;;;0.40;;
20842;SDS011;26719;51.440;-2.574;2022-12-08T05:47:47;0.60;;;0.60;;
20842;SDS011;26719;51.440;-2.574;2022-12-08T05:50:13;0.40;;;0.40;;
20842;SDS011;26719;51.440;-2.574;2022-12-08T05:52:39;0.40;;;0.40;;
20842;SDS011;26719;51.440;-2.574;2022-12-08T05:55:05;0.50;;;0.50;;
20842;SDS011;26719;51.440;-2.574;2022-12-08T05:57:32;0.40;;;0.40;;
20842;SDS011;26719;51.440;-2.574;2022-12-08T05:59:58;0.40;;;0.40;;
20842;SDS011;26719;51.440;-2.574;2022-12-08T06:02:24;0.40;;;0.40;;
20842;SDS011;26719;51.440;-2.574;2022-12-08T06:04:50;0.30;;;0.30;;
20842;SDS011;26719;51.440;-2.574;2022-12-08T06:07:16;0.50;;;0.50;;
20842;SDS011;26719;51.440;-2.574;2022-12-08T06:09:42;0.30;;;0.30;;
20842;SDS011;26719;51.440;-2.574;2022-12-08T06:12:08;0.40;;;0.40;;
20842;SDS011;26719;51.440;-2.574;2022-12-08T06:14:37;0.40;;;0.40;;
20842;SDS011;26719;51.440;-2.574;2022-12-08T06:17:03;0.40;;;0.40;;
20842;SDS011;26719;51.440;-2.574;2022-12-08T06:19:29;0.40;;;0.40;;
20842;SDS011;26719;51.440;-2.574;2022-12-08T06:21:55;0.53;;;0.53;;
20842;SDS011;26719;51.440;-2.574;2022-12-08T06:24:21;0.30;;;0.30;;
20842;SDS011;26719;51.440;-2.574;2022-12-08T06:26:47;0.50;;;0.50;;
20842;SDS011;26719;51.440;-2.574;2022-12-08T06:29:13;0.50;;;0.50;;
20842;SDS011;26719;51.440;-2.574;2022-12-08T06:31:39;0.50;;;0.50;;
20842;SDS011;26719;51.440;-2.574;2022-12-08T06:34:05;0.30;;;0.30;;
20842;SDS011;26719;51.440;-2.574;2022-12-08T06:36:31;0.30;;;0.30;;
20842;SDS011;26719;51.440;-2.574;2022-12-08T06:38:58;0.50;;;0.50;;
20842;SDS011;26719;51.440;-2.574;2022-12-08T06:41:25;0.60;;;0.60;;
20842;SDS011;26719;51.440;-2.574;2022-12-08T06:43:54;0.40;;;0.40;;
20842;SDS011;26719;51.440;-2.574;2022-12-08T06:46:21;0.50;;;0.50;;
20842;SDS011;26719;51.440;-2.574;2022-12-08T06:48:47;0.50;;;0.50;;
20842;SDS011;26719;51.440;-2.574;2022-12-08T06:51:15;0.50;;;0.50;;
20842;SDS011;26719;51.440;-2.574;2022-12-08T06:53:42;0.60;;;0.60;;
20842;SDS011;26719;51.440;-2.574;2022-12-08T06:56:08;0.50;;;0.50;;
20842;SDS011;26719;51.440;-2.574;2022-12-08T06:58:35;0.50;;;0.50;;
20842;SDS011;26719;51.440;-2.574;2022-12-08T07:01:10;0.60;;;0.60;;
20842;SDS011;26719;51.440;-2.574;2022-12-08T07:03:37;0.40;;;0.40;;
20842;SDS011;26719;51.440;-2.574;2022-12-08T07:06:03;0.40;;;0.40;;
20842;SDS011;26719;51.440;-2.574;2022-12-08T07:08:30;0.30;;;0.30;;
20842;SDS011;26719;51.440;-2.574;2022-12-08T07:10:56;0.50;;;0.50;;
20842;SDS011;26719;51.440;-2.574;2022-12-08T07:13:22;0.33;;;0.33;;
20842;SDS011;26719;51.440;-2.574;2022-12-08T07:15:48;0.50;;;0.50;;
20842;SDS011;26719;51.440;-2.574;2022-12-08T07:18:15;0.47;;;0.47;;
20842;SDS011;26719;51.440;-2.574;2022-12-08T07:20:41;0.60;;;0.60;;
20842;SDS011;26719;51.440;-2.574;2022-12-08T07:23:07;0.53;;;0.53;;
20842;SDS011;26719;51.440;-2.574;2022-12-08T07:25:33;0.30;;;0.30;;
20842;SDS011;26719;51.440;-2.574;2022-12-08T07:27:59;0.30;;;0.30;;
20842;SDS011;26719;51.440;-2.574;2022-12-08T07:30:25;0.50;;;0.50;;
20842;SDS011;26719;51.440;-2.574;2022-12-08T07:32:51;0.30;;;0.30;;
20842;SDS011;26719;51.440;-2.574;2022-12-08T07:35:17;0.50;;;0.50;;
20842;SDS011;26719;51.440;-2.574;2022-12-08T07:37:43;0.50;;;0.50;;
20842;SDS011;26719;51.440;-2.574;2022-12-08T07:40:09;0.50;;;0.50;;
20842;SDS011;26719;51.440;-2.574;2022-12-08T07:42:35;0.50;;;0.50;;
20842;SDS011;26719;51.440;-2.574;2022-12-08T07:45:01;0.40;;;0.40;;
20842;SDS011;26719;51.440;-2.574;2022-12-08T07:47:27;0.50;;;0.50;;
20842;SDS011;26719;51.440;-2.574;2022-12-08T07:49:53;0.60;;;0.60;;
20842;SDS011;26719;51.440;-2.574;2022-12-08T07:52:19;0.53;;;0.53;;
20842;SDS011;26719;51.440;-2.574;2022-12-08T07:54:46;0.50;;;0.50;;
20842;SDS011;26719;51.440;-2.574;2022-12-08T07:57:12;0.50;;;0.50;;
20842;SDS011;26719;51.440;-2.574;2022-12-08T07:59:38;0.40;;;0.40;;
20842;SDS011;26719;51.440;-2.574;2022-12-08T08:02:04;0.40;;;0.40;;
20842;SDS011;26719;51.440;-2.574;2022-12-08T08:04:30;0.40;;;0.40;;
20842;SDS011;26719;51.440;-2.574;2022-12-08T08:06:56;0.50;;;0.50;;
20842;SDS011;26719;51.440;-2.574;2022-12-08T08:09:22;0.40;;;0.40;;
20842;SDS011;26719;51.440;-2.574;2022-12-08T08:11:48;0.50;;;0.50;;
20842;SDS011;26719;51.440;-2.574;2022-12-08T08:14:14;0.47;;;0.47;;
20842;SDS011;26719;51.440;-2.574;2022-12-08T08:16:40;0.50;;;0.50;;
20842;SDS011;26719;51.440;-2.574;2022-12-08T08:19:10;0.53;;;0.53;;
20842;SDS011;26719;51.440;-2.574;2022-12-08T08:21:36;0.50;;;0.50;;
20842;SDS011;26719;51.440;-2.574;2022-12-08T08:24:02;0.50;;;0.50;;
20842;SDS011;26719;51.440;-2.574;2022-12-08T08:26:28;0.33;;;0.33;;
20842;SDS011;26719;51.440;-2.574;2022-12-08T08:28:54;0.43;;;0.43;;
20842;SDS011;26719;51.440;-2.574;2022-12-08T08:31:26;0.50;;;0.50;;
20842;SDS011;26719;51.440;-2.574;2022-12-08T08:33:52;0.50;;;0.50;;
20842;SDS011;26719;51.440;-2.574;2022-12-08T08:36:18;0.50;;;0.50;;
20842;SDS011;26719;51.440;-2.574;2022-12-08T08:38:46;0.53;;;0.53;;
20842;SDS011;26719;51.440;-2.574;2022-12-08T08:41:12;0.43;;;0.43;;
20842;SDS011;26719;51.440;-2.574;2022-12-08T08:43:38;0.40;;;0.40;;
20842;SDS011;26719;51.440;-2.574;2022-12-08T08:46:04;0.47;;;0.47;;
20842;SDS011;26719;51.440;-2.574;2022-12-08T08:48:30;0.50;;;0.50;;
20842;SDS011;26719;51.440;-2.574;2022-12-08T08:50:57;0.40;;;0.40;;
20842;SDS011;26719;51.440;-2.574;2022-12-08T08:53:24;0.50;;;0.50;;
20842;SDS011;26719;51.440;-2.574;2022-12-08T08:55:50;0.40;;;0.40;;
20842;SDS011;26719;51.440;-2.574;2022-12-08T08:58:16;0.57;;;0.57;;
20842;SDS011;26719;51.440;-2.574;2022-12-08T09:00:42;0.50;;;0.50;;
20842;SDS011;26719;51.440;-2.574;2022-12-08T09:03:09;0.40;;;0.40;;
20842;SDS011;26719;51.440;-2.574;2022-12-08T09:05:36;0.40;;;0.40;;
20842;SDS011;26719;51.440;-2.574;2022-12-08T09:08:03;0.40;;;0.40;;
20842;SDS011;26719;51.440;-2.574;2022-12-08T09:10:29;0.50;;;0.50;;
20842;SDS011;26719;51.440;-2.574;2022-12-08T09:12:55;0.40;;;0.40;;
20842;SDS011;26719;51.440;-2.574;2022-12-08T09:15:21;0.50;;;0.50;;
20842;SDS011;26719;51.440;-2.574;2022-12-08T09:17:47;0.50;;;0.50;;
20842;SDS011;26719;51.440;-2.574;2022-12-08T09:20:13;0.40;;;0.40;;
20842;SDS011;26719;51.440;-2.574;2022-12-08T09:22:39;0.50;;;0.50;;
20842;SDS011;26719;51.440;-2.574;2022-12-08T09:25:05;0.50;;;0.50;;
20842;SDS011;26719;51.440;-2.574;2022-12-08T09:27:31;0.50;;;0.50;;
20842;SDS011;26719;51.440;-2.574;2022-12-08T09:29:58;0.60;;;0.60;;
20842;SDS011;26719;51.440;-2.574;2022-12-08T09:32:24;0.40;;;0.40;;
20842;SDS011;26719;51.440;-2.574;2022-12-08T09:34:50;0.33;;;0.33;;
20842;SDS011;26719;51.440;-2.574;2022-12-08T09:37:16;0.30;;;0.30;;
20842;SDS011;26719;51.440;-2.574;2022-12-08T09:39:42;0.50;;;0.50;;
20842;SDS011;26719;51.440;-2.574;2022-12-08T09:42:08;0.40;;;0.40;;
20842;SDS011;26719;51.440;-2.574;2022-12-08T09:47:02;0.20;;;0.20;;
20842;SDS011;26719;51.440;-2.574;2022-12-08T09:49:36;0.40;;;0.40;;
20842;SDS011;26719;51.440;-2.574;2022-12-08T09:52:05;0.30;;;0.30;;
20842;SDS011;26719;51.440;-2.574;2022-12-08T09:54:37;0.20;;;0.20;;
20842;SDS011;26719;51.440;-2.574;2022-12-08T09:57:06;0.10;;;0.10;;
20842;SDS011;26719;51.440;-2.574;2022-12-08T09:59:35;0.30;;;0.30;;
20842;SDS011;26719;51.440;-2.574;2022-12-08T10:02:02;0.30;;;0.30;;
20842;SDS011;26719;51.440;-2.574;2022-12-08T10:04:35;0.20;;;0.20;;
20842;SDS011;26719;51.440;-2.574;2022-12-08T10:17:36;0.10;;;0.10;;
20842;SDS011;26719;51.440;-2.574;2022-12-08T10:20:10;0.10;;;0.10;;
20842;SDS011;26719;51.440;-2.574;2022-12-08T10:22:37;0.03;;;0.03;;
20842;SDS011;26719;51.440;-2.574;2022-12-08T10:25:04;0.10;;;0.10;;
20842;SDS011;26719;51.440;-2.574;2022-12-08T10:27:35;0.10;;;0.10;;
20842;SDS011;26719;51.440;-2.574;2022-12-08T10:30:02;0.10;;;0.10;;
20842;SDS011;26719;51.440;-2.574;2022-12-08T10:32:34;0.10;;;0.10;;
20842;SDS011;26719;51.440;-2.574;2022-12-08T10:35:02;0.10;;;0.10;;
20842;SDS011;26719;51.440;-2.574;2022-12-08T10:37:32;0.10;;;0.10;;
20842;SDS011;26719;51.440;-2.574;2022-12-08T10:40:05;0.10;;;0.10;;
20842;SDS011;26719;51.440;-2.574;2022-12-08T10:42:35;0.10;;;0.10;;
20842;SDS011;26719;51.440;-2.574;2022-12-08T10:47:34;0.10;;;0.10;;
20842;SDS011;26719;51.440;-2.574;2022-12-08T10:50:08;0.10;;;0.10;;
20842;SDS011;26719;51.440;-2.574;2022-12-08T10:52:38;0.10;;;0.10;;
20842;SDS011;26719;51.440;-2.574;2022-12-08T10:55:17;0.10;;;0.10;;
20842;SDS011;26719;51.440;-2.574;2022-12-08T10:57:44;0.10;;;0.10;;
20842;SDS011;26719;51.440;-2.574;2022-12-08T11:00:13;0.03;;;0.03;;
20842;SDS011;26719;51.440;-2.574;2022-12-08T11:02:50;0.10;;;0.10;;
20842;SDS011;26719;51.440;-2.574;2022-12-08T11:05:17;0.10;;;0.10;;
20842;SDS011;26719;51.440;-2.574;2022-12-08T11:07:45;0.10;;;0.10;;
20842;SDS011;26719;51.440;-2.574;2022-12-08T11:10:18;0.00;;;0.00;;
20842;SDS011;26719;51.440;-2.574;2022-12-08T11:12:44;0.10;;;0.10;;
20842;SDS011;26719;51.440;-2.574;2022-12-08T11:15:17;0.10;;;0.10;;
20842;SDS011;26719;51.440;-2.574;2022-12-08T11:17:43;0.00;;;0.00;;
20842;SDS011;26719;51.440;-2.574;2022-12-08T11:27:45;0.00;;;0.00;;
20842;SDS011;26719;51.440;-2.574;2022-12-08T11:30:18;0.10;;;0.10;;
20842;SDS011;26719;51.440;-2.574;2022-12-08T11:32:46;0.10;;;0.10;;
20842;SDS011;26719;51.440;-2.574;2022-12-08T11:35:23;0.10;;;0.10;;
20842;SDS011;26719;51.440;-2.574;2022-12-08T11:37:50;0.10;;;0.10;;
20842;SDS011;26719;51.440;-2.574;2022-12-08T11:40:36;0.00;;;0.00;;
20842;SDS011;26719;51.440;-2.574;2022-12-08T11:43:07;0.10;;;0.10;;
20842;SDS011;26719;51.440;-2.574;2022-12-08T11:45:37;0.10;;;0.10;;
20842;SDS011;26719;51.440;-2.574;2022-12-08T11:48:08;0.10;;;0.10;;
20842;SDS011;26719;51.440;-2.574;2022-12-08T11:50:49;0.00;;;0.00;;
20842;SDS011;26719;51.440;-2.574;2022-12-08T11:56:04;0.07;;;0.07;;
20842;SDS011;26719;51.440;-2.574;2022-12-08T11:58:42;0.00;;;0.00;;
20842;SDS011;26719;51.440;-2.574;2022-12-08T12:01:14;0.00;;;0.00;;
20842;SDS011;26719;51.440;-2.574;2022-12-08T12:03:42;0.10;;;0.10;;
20842;SDS011;26719;51.440;-2.574;2022-12-08T12:09:02;0.00;;;0.00;;
20842;SDS011;26719;51.440;-2.574;2022-12-08T12:12:20;0.07;;;0.07;;
20842;SDS011;26719;51.440;-2.574;2022-12-08T12:17:20;0.10;;;0.10;;
20842;SDS011;26719;51.440;-2.574;2022-12-08T12:19:52;0.00;;;0.00;;
20842;SDS011;26719;51.440;-2.574;2022-12-08T12:22:19;0.10;;;0.10;;
20842;SDS011;26719;51.440;-2.574;2022-12-08T12:24:46;0.10;;;0.10;;
20842;SDS011;26719;51.440;-2.574;2022-12-08T12:29:45;0.10;;;0.10;;
20842;SDS011;26719;51.440;-2.574;2022-12-08T12:32:12;0.10;;;0.10;;
20842;SDS011;26719;51.440;-2.574;2022-12-08T12:34:49;0.10;;;0.10;;
20842;SDS011;26719;51.440;-2.574;2022-12-08T12:37:17;0.00;;;0.00;;
20842;SDS011;26719;51.440;-2.574;2022-12-08T12:45:11;0.10;;;0.10;;
20842;SDS011;26719;51.440;-2.574;2022-12-08T12:58:18;0.00;;;0.00;;
20842;SDS011;26719;51.440;-2.574;2022-12-08T13:00:45;0.13;;;0.13;;
20842;SDS011;26719;51.440;-2.574;2022-12-08T13:03:14;0.03;;;0.03;;
20842;SDS011;26719;51.440;-2.574;2022-12-08T13:05:49;0.10;;;0.10;;
20842;SDS011;26719;51.440;-2.574;2022-12-08T13:08:22;0.00;;;0.00;;
20842;SDS011;26719;51.440;-2.574;2022-12-08T13:13:22;0.20;;;0.20;;
20842;SDS011;26719;51.440;-2.574;2022-12-08T13:15:49;0.10;;;0.10;;
20842;SDS011;26719;51.440;-2.574;2022-12-08T13:18:20;0.00;;;0.00;;
20842;SDS011;26719;51.440;-2.574;2022-12-08T13:20:53;0.10;;;0.10;;
20842;SDS011;26719;51.440;-2.574;2022-12-08T13:25:51;0.10;;;0.10;;
20842;SDS011;26719;51.440;-2.574;2022-12-08T13:28:21;0.10;;;0.10;;
20842;SDS011;26719;51.440;-2.574;2022-12-08T13:30:58;0.10;;;0.10;;
20842;SDS011;26719;51.440;-2.574;2022-12-08T13:33:37;0.10;;;0.10;;
20842;SDS011;26719;51.440;-2.574;2022-12-08T13:36:21;0.17;;;0.17;;
20842;SDS011;26719;51.440;-2.574;2022-12-08T13:38:52;0.10;;;0.10;;
20842;SDS011;26719;51.440;-2.574;2022-12-08T13:41:21;0.00;;;0.00;;
20842;SDS011;26719;51.440;-2.574;2022-12-08T13:43:49;0.00;;;0.00;;
20842;SDS011;26719;51.440;-2.574;2022-12-08T13:46:22;0.10;;;0.10;;
20842;SDS011;26719;51.440;-2.574;2022-12-08T13:48:54;0.00;;;0.00;;
20842;SDS011;26719;51.440;-2.574;2022-12-08T13:51:22;0.10;;;0.10;;
20842;SDS011;26719;51.440;-2.574;2022-12-08T13:54:00;0.10;;;0.10;;
20842;SDS011;26719;51.440;-2.574;2022-12-08T13:56:29;0.10;;;0.10;;
20842;SDS011;26719;51.440;-2.574;2022-12-08T13:59:21;0.10;;;0.10;;
20842;SDS011;26719;51.440;-2.574;2022-12-08T14:01:50;0.10;;;0.10;;
20842;SDS011;26719;51.440;-2.574;2022-12-08T14:04:18;0.10;;;0.10;;
20842;SDS011;26719;51.440;-2.574;2022-12-08T14:06:48;0.10;;;0.10;;
20842;SDS011;26719;51.440;-2.574;2022-12-08T14:09:16;0.10;;;0.10;;
20842;SDS011;26719;51.440;-2.574;2022-12-08T14:11:46;0.10;;;0.10;;
20842;SDS011;26719;51.440;-2.574;2022-12-08T14:14:19;0.10;;;0.10;;
20842;SDS011;26719;51.440;-2.574;2022-12-08T14:16:55;0.10;;;0.10;;
20842;SDS011;26719;51.440;-2.574;2022-12-08T14:19:22;0.10;;;0.10;;
20842;SDS011;26719;51.440;-2.574;2022-12-08T14:24:20;0.20;;;0.20;;
20842;SDS011;26719;51.440;-2.574;2022-12-08T14:26:46;0.20;;;0.20;;
20842;SDS011;26719;51.440;-2.574;2022-12-08T14:29:22;0.10;;;0.10;;
20842;SDS011;26719;51.440;-2.574;2022-12-08T14:31:54;0.10;;;0.10;;
20842;SDS011;26719;51.440;-2.574;2022-12-08T14:34:20;0.10;;;0.10;;
20842;SDS011;26719;51.440;-2.574;2022-12-08T14:36:47;0.13;;;0.13;;
20842;SDS011;26719;51.440;-2.574;2022-12-08T14:39:13;0.13;;;0.13;;
20842;SDS011;26719;51.440;-2.574;2022-12-08T14:41:39;0.20;;;0.20;;
20842;SDS011;26719;51.440;-2.574;2022-12-08T14:44:17;0.10;;;0.10;;
20842;SDS011;26719;51.440;-2.574;2022-12-08T14:49:41;0.30;;;0.30;;
20842;SDS011;26719;51.440;-2.574;2022-12-08T14:52:11;0.10;;;0.10;;
20842;SDS011;26719;51.440;-2.574;2022-12-08T14:54:38;0.20;;;0.20;;
20842;SDS011;26719;51.440;-2.574;2022-12-08T14:57:05;0.20;;;0.20;;
20842;SDS011;26719;51.440;-2.574;2022-12-08T14:59:32;0.20;;;0.20;;
20842;SDS011;26719;51.440;-2.574;2022-12-08T15:02:42;0.20;;;0.20;;
20842;SDS011;26719;51.440;-2.574;2022-12-08T15:05:31;0.20;;;0.20;;
20842;SDS011;26719;51.440;-2.574;2022-12-08T15:12:36;0.20;;;0.20;;
20842;SDS011;26719;51.440;-2.574;2022-12-08T15:23:27;0.10;;;0.10;;
20842;SDS011;26719;51.440;-2.574;2022-12-08T15:25:55;0.20;;;0.20;;
20842;SDS011;26719;51.440;-2.574;2022-12-08T15:28:24;0.13;;;0.13;;
20842;SDS011;26719;51.440;-2.574;2022-12-08T15:30:51;0.17;;;0.17;;
20842;SDS011;26719;51.440;-2.574;2022-12-08T15:33:17;0.20;;;0.20;;
20842;SDS011;26719;51.440;-2.574;2022-12-08T15:35:44;0.10;;;0.10;;
20842;SDS011;26719;51.440;-2.574;2022-12-08T15:38:29;0.10;;;0.10;;
20842;SDS011;26719;51.440;-2.574;2022-12-08T15:40:55;0.20;;;0.20;;
20842;SDS011;26719;51.440;-2.574;2022-12-08T15:43:24;0.20;;;0.20;;
20842;SDS011;26719;51.440;-2.574;2022-12-08T15:45:51;0.30;;;0.30;;
20842;SDS011;26719;51.440;-2.574;2022-12-08T15:48:22;0.20;;;0.20;;
20842;SDS011;26719;51.440;-2.574;2022-12-08T15:50:49;0.20;;;0.20;;
20842;SDS011;26719;51.440;-2.574;2022-12-08T15:53:15;0.13;;;0.13;;
20842;SDS011;26719;51.440;-2.574;2022-12-08T15:55:41;0.20;;;0.20;;
20842;SDS011;26719;51.440;-2.574;2022-12-08T15:58:18;0.30;;;0.30;;
20842;SDS011;26719;51.440;-2.574;2022-12-08T16:00:45;0.20;;;0.20;;
20842;SDS011;26719;51.440;-2.574;2022-12-08T16:03:22;0.13;;;0.13;;
20842;SDS011;26719;51.440;-2.574;2022-12-08T16:05:48;0.20;;;0.20;;
20842;SDS011;26719;51.440;-2.574;2022-12-08T16:08:14;0.30;;;0.30;;
20842;SDS011;26719;51.440;-2.574;2022-12-08T16:10:41;0.20;;;0.20;;
20842;SDS011;26719;51.440;-2.574;2022-12-08T16:13:13;0.20;;;0.20;;
20842;SDS011;26719;51.440;-2.574;2022-12-08T16:15:59;0.20;;;0.20;;
20842;SDS011;26719;51.440;-2.574;2022-12-08T16:18:26;0.20;;;0.20;;
20842;SDS011;26719;51.440;-2.574;2022-12-08T16:20:53;0.20;;;0.20;;
20842;SDS011;26719;51.440;-2.574;2022-12-08T16:23:19;0.20;;;0.20;;
20842;SDS011;26719;51.440;-2.574;2022-12-08T16:25:45;0.20;;;0.20;;